createdAt,value
2022-08-03T00:00:02.976Z,20.79
2022-08-03T00:01:07.365Z,20.70
2022-08-03T00:02:10.588Z,20.60
2022-08-03T00:03:13.659Z,20.58
2022-08-03T00:04:17.364Z,20.53
2022-08-03T00:05:20.537Z,20.40
2022-08-03T00:06:23.480Z,20.48
2022-08-03T00:07:26.493Z,20.37
2022-08-03T00:08:29.674Z,20.40
2022-08-03T00:09:35.734Z,20.48
2022-08-03T00:10:39.063Z,20.44
2022-08-03T00:11:42.131Z,20.33
2022-08-03T00:12:45.175Z,20.25
2022-08-03T00:13:48.271Z,20.32
2022-08-03T00:14:51.223Z,20.28
2022-08-03T00:15:54.656Z,20.26
2022-08-03T00:16:58.407Z,20.35
2022-08-03T00:18:01.521Z,20.29
2022-08-03T00:19:05.033Z,20.28
2022-08-03T00:20:08.345Z,20.16
2022-08-03T00:21:11.664Z,20.29
2022-08-03T00:22:14.695Z,20.27
2022-08-03T00:23:18.082Z,20.29
2022-08-03T00:24:21.302Z,20.36
2022-08-03T00:25:24.415Z,20.26
2022-08-03T00:26:27.477Z,20.16
2022-08-03T00:27:32.679Z,20.13
2022-08-03T00:28:37.394Z,20.10
2022-08-03T00:29:59.524Z,20.17
2022-08-03T00:31:03.340Z,20.15
2022-08-03T00:32:06.692Z,20.00
2022-08-03T00:33:13.843Z,19.93
2022-08-03T00:34:17.482Z,19.76
2022-08-03T00:35:50.351Z,19.67
2022-08-03T00:36:54.224Z,19.71
2022-08-03T00:37:57.901Z,19.60
2022-08-03T00:39:01.477Z,19.53
2022-08-03T00:40:08.243Z,19.61
2022-08-03T00:41:11.177Z,19.65
2022-08-03T00:42:18.780Z,19.52
2022-08-03T00:43:27.142Z,19.53
2022-08-03T00:44:30.097Z,19.50
2022-08-03T00:45:39.110Z,19.48
2022-08-03T00:46:42.107Z,19.42
2022-08-03T00:47:46.181Z,19.35
2022-08-03T00:48:52.763Z,19.38
2022-08-03T00:49:55.725Z,19.44
2022-08-03T00:50:59.270Z,19.37
2022-08-03T00:52:09.467Z,19.28
2022-08-03T00:53:13.766Z,19.27
2022-08-03T00:54:16.659Z,19.12
2022-08-03T00:55:19.917Z,19.10
2022-08-03T00:56:23.018Z,19.18
2022-08-03T00:57:25.923Z,19.25
2022-08-03T00:58:29.992Z,19.18
2022-08-03T00:59:32.935Z,19.19
2022-08-03T01:00:39.256Z,19.20
2022-08-03T01:01:42.529Z,19.17
2022-08-03T01:02:45.772Z,19.22
2022-08-03T01:03:48.704Z,19.17
2022-08-03T01:04:51.558Z,19.24
2022-08-03T01:06:13.570Z,19.21
2022-08-03T01:07:55.303Z,19.23
2022-08-03T01:09:12.865Z,19.22
2022-08-03T01:10:38.645Z,19.16
2022-08-03T01:12:00.828Z,19.24
2022-08-03T01:14:01.874Z,19.37
2022-08-03T01:14:50.469Z,19.32
2022-08-03T01:15:58.421Z,19.28
2022-08-03T01:17:11.871Z,19.31
2022-08-03T01:18:32.029Z,19.33
2022-08-03T01:20:03.093Z,19.37
2022-08-03T01:21:28.275Z,19.37
2022-08-03T01:23:16.140Z,19.44
2022-08-03T01:25:05.669Z,19.48
2022-08-03T01:26:48.400Z,19.42
2022-08-03T01:27:58.229Z,19.48
2022-08-03T01:29:09.735Z,19.61
2022-08-03T01:30:14.195Z,19.60
2022-08-03T01:31:24.638Z,19.58
2022-08-03T01:33:20.909Z,19.55
2022-08-03T01:34:29.015Z,19.46
2022-08-03T01:36:02.552Z,19.44
2022-08-03T01:38:26.790Z,19.37
2022-08-03T01:39:33.732Z,19.44
2022-08-03T01:40:40.143Z,19.40
2022-08-03T01:41:59.771Z,19.45
2022-08-03T01:43:07.213Z,19.42
2022-08-03T01:44:30.046Z,19.38
2022-08-03T01:45:37.463Z,19.42
2022-08-03T01:46:48.868Z,19.49
2022-08-03T01:47:54.529Z,19.53
2022-08-03T01:49:00.394Z,19.52
2022-08-03T01:50:15.648Z,19.49
2022-08-03T01:51:24.141Z,19.43
2022-08-03T01:52:49.599Z,19.45
2022-08-03T01:53:55.328Z,19.43
2022-08-03T01:55:00.299Z,19.38
2022-08-03T01:56:07.203Z,19.37
2022-08-03T01:57:12.135Z,19.39
2022-08-03T01:58:17.843Z,19.34
2022-08-03T01:59:23.694Z,19.41
2022-08-03T02:00:28.372Z,19.44
2022-08-03T02:02:32.144Z,19.41
2022-08-03T02:02:59.543Z,19.42
2022-08-03T02:04:04.595Z,19.41
2022-08-03T02:05:13.454Z,19.45
2022-08-03T02:07:02.189Z,19.44
2022-08-03T02:07:50.492Z,19.43
2022-08-03T02:08:56.380Z,19.49
2022-08-03T02:10:03.479Z,19.54
2022-08-03T02:11:07.923Z,19.44
2022-08-03T02:12:14.635Z,19.51
2022-08-03T02:13:23.126Z,19.40
2022-08-03T02:14:28.896Z,19.36
2022-08-03T02:15:34.454Z,19.30
2022-08-03T02:16:38.304Z,19.37
2022-08-03T02:17:44.909Z,19.37
2022-08-03T02:18:49.696Z,19.43
2022-08-03T02:19:57.026Z,19.40
2022-08-03T02:21:05.342Z,19.36
2022-08-03T02:22:16.567Z,19.40
2022-08-03T02:23:21.315Z,19.40
2022-08-03T02:25:34.471Z,19.26
2022-08-03T02:27:53.550Z,19.16
2022-08-03T02:29:02.698Z,19.22
2022-08-03T02:30:09.968Z,19.22
2022-08-03T02:31:18.690Z,19.21
2022-08-03T02:32:31.154Z,19.22
2022-08-03T02:33:43.529Z,19.18
2022-08-03T02:34:51.062Z,19.21
2022-08-03T02:35:56.232Z,19.21
2022-08-03T02:37:01.202Z,19.18
2022-08-03T02:38:10.964Z,19.23
2022-08-03T02:39:20.880Z,19.14
2022-08-03T02:40:28.275Z,19.13
2022-08-03T02:41:55.578Z,19.14
2022-08-03T02:43:13.172Z,19.05
2022-08-03T02:44:21.926Z,19.04
2022-08-03T02:45:28.389Z,19.06
2022-08-03T02:46:38.275Z,19.12
2022-08-03T02:47:53.797Z,19.13
2022-08-03T02:49:50.084Z,19.14
2022-08-03T02:50:31.036Z,19.08
2022-08-03T02:51:38.197Z,19.06
2022-08-03T02:52:45.423Z,19.05
2022-08-03T02:53:51.046Z,18.97
2022-08-03T02:55:00.166Z,18.97
2022-08-03T02:56:06.298Z,18.97
2022-08-03T02:57:12.157Z,19.00
2022-08-03T02:58:21.628Z,18.98
2022-08-03T02:59:26.350Z,19.02
2022-08-03T03:00:34.821Z,19.09
2022-08-03T03:01:40.253Z,19.06
2022-08-03T03:02:45.699Z,19.13
2022-08-03T03:03:52.128Z,19.18
2022-08-03T03:05:55.047Z,19.21
2022-08-03T03:06:27.511Z,19.16
2022-08-03T03:07:51.188Z,19.14
2022-08-03T03:08:59.921Z,19.18
2022-08-03T03:10:05.687Z,19.24
2022-08-03T03:11:10.599Z,19.25
2022-08-03T03:12:15.205Z,19.28
2022-08-03T03:13:21.340Z,19.29
2022-08-03T03:14:33.215Z,19.32
2022-08-03T03:15:39.599Z,19.17
2022-08-03T03:16:45.016Z,19.21
2022-08-03T03:17:54.288Z,19.27
2022-08-03T03:18:58.867Z,19.28
2022-08-03T03:20:03.139Z,19.38
2022-08-03T03:21:09.933Z,19.47
2022-08-03T03:22:15.531Z,19.43
2022-08-03T03:23:22.155Z,19.44
2022-08-03T03:24:25.837Z,19.42
2022-08-03T03:25:33.310Z,19.43
2022-08-03T03:26:40.691Z,19.45
2022-08-03T03:27:50.857Z,19.40
2022-08-03T03:28:54.356Z,19.38
2022-08-03T03:29:58.534Z,19.38
2022-08-03T03:31:01.687Z,19.41
2022-08-03T03:32:04.734Z,19.34
2022-08-03T03:33:12.866Z,19.35
2022-08-03T03:34:15.867Z,19.37
2022-08-03T03:35:19.719Z,19.43
2022-08-03T03:36:22.603Z,19.45
2022-08-03T03:37:27.287Z,19.54
2022-08-03T03:38:33.114Z,19.52
2022-08-03T03:39:36.679Z,19.60
2022-08-03T03:40:39.684Z,19.55
2022-08-03T03:41:42.866Z,19.48
2022-08-03T03:42:46.147Z,19.52
2022-08-03T03:43:50.794Z,19.53
2022-08-03T03:45:00.074Z,19.52
2022-08-03T03:46:13.526Z,19.60
2022-08-03T03:47:16.632Z,19.67
2022-08-03T03:48:19.923Z,19.62
2022-08-03T03:49:23.116Z,19.68
2022-08-03T03:50:26.420Z,19.63
2022-08-03T03:51:29.199Z,19.61
2022-08-03T03:52:33.042Z,19.62
2022-08-03T03:53:35.802Z,19.65
2022-08-03T03:54:43.180Z,19.74
2022-08-03T03:55:57.804Z,19.71
2022-08-03T03:57:05.551Z,19.77
2022-08-03T03:58:08.965Z,19.75
2022-08-03T03:59:11.890Z,19.72
2022-08-03T04:00:16.570Z,19.87
2022-08-03T04:01:19.838Z,19.92
2022-08-03T04:02:22.755Z,19.93
2022-08-03T04:03:25.438Z,19.93
2022-08-03T04:04:46.715Z,19.85
2022-08-03T04:06:09.523Z,19.80
2022-08-03T04:07:31.186Z,19.87
2022-08-03T04:08:54.642Z,19.91
2022-08-03T04:10:16.901Z,19.89
2022-08-03T04:11:34.613Z,19.85
2022-08-03T04:12:38.811Z,19.85
2022-08-03T04:13:55.506Z,19.83
2022-08-03T04:15:06.086Z,19.75
2022-08-03T04:16:12.750Z,19.76
2022-08-03T04:17:17.158Z,19.78
2022-08-03T04:18:22.763Z,19.76
2022-08-03T04:19:33.373Z,19.88
2022-08-03T04:20:39.074Z,19.89
2022-08-03T04:21:44.585Z,19.98
2022-08-03T04:22:51.187Z,19.96
2022-08-03T04:23:58.849Z,19.87
2022-08-03T04:25:09.875Z,19.93
2022-08-03T04:26:15.643Z,19.83
2022-08-03T04:27:23.604Z,19.90
2022-08-03T04:28:30.945Z,19.85
2022-08-03T04:29:38.503Z,19.82
2022-08-03T04:30:50.896Z,19.78
2022-08-03T04:31:56.067Z,19.83
2022-08-03T04:33:01.554Z,19.92
2022-08-03T04:34:05.098Z,19.89
2022-08-03T04:35:08.573Z,19.91
2022-08-03T04:36:17.269Z,19.93
2022-08-03T04:37:34.195Z,19.97
2022-08-03T04:38:53.920Z,20.07
2022-08-03T04:40:02.224Z,19.95
2022-08-03T04:41:05.250Z,19.91
2022-08-03T04:42:12.034Z,19.84
2022-08-03T04:43:18.800Z,19.95
2022-08-03T04:44:27.866Z,20.03
2022-08-03T04:45:32.992Z,20.03
2022-08-03T04:46:38.871Z,19.96
2022-08-03T04:47:50.743Z,19.90
2022-08-03T04:48:54.033Z,19.94
2022-08-03T04:51:04.988Z,19.96
2022-08-03T04:52:08.888Z,19.89
2022-08-03T04:53:11.622Z,19.91
2022-08-03T04:54:16.312Z,19.93
2022-08-03T04:55:32.083Z,19.92
2022-08-03T04:56:34.868Z,19.85
2022-08-03T04:57:37.654Z,19.89
2022-08-03T04:58:40.384Z,19.94
2022-08-03T04:59:43.275Z,19.99
2022-08-03T05:00:46.021Z,19.96
2022-08-03T05:01:48.728Z,20.04
2022-08-03T05:02:51.691Z,20.05
2022-08-03T05:03:54.377Z,20.08
2022-08-03T05:04:57.185Z,20.15
2022-08-03T05:06:09.378Z,20.19
2022-08-03T05:07:24.138Z,20.25
2022-08-03T05:08:28.404Z,20.23
2022-08-03T05:09:50.443Z,20.31
2022-08-03T05:10:59.100Z,20.38
2022-08-03T05:12:02.327Z,20.45
2022-08-03T05:13:13.139Z,20.47
2022-08-03T05:14:15.809Z,20.56
2022-08-03T05:15:18.521Z,20.57
2022-08-03T05:16:21.166Z,20.60
2022-08-03T05:17:24.140Z,20.64
2022-08-03T05:18:27.083Z,20.67
2022-08-03T05:19:30.121Z,20.74
2022-08-03T05:20:33.238Z,20.98
2022-08-03T05:21:51.793Z,21.02
2022-08-03T05:22:55.688Z,21.08
2022-08-03T05:23:58.340Z,21.15
2022-08-03T05:25:02.296Z,21.23
2022-08-03T05:26:05.115Z,21.24
2022-08-03T05:27:08.182Z,21.39
2022-08-03T05:28:12.309Z,21.46
2022-08-03T05:29:15.011Z,21.62
2022-08-03T05:30:32.600Z,21.63
2022-08-03T05:31:36.965Z,21.70
2022-08-03T05:32:39.611Z,21.82
2022-08-03T05:33:45.241Z,21.92
2022-08-03T05:34:47.914Z,21.98
2022-08-03T05:36:02.728Z,22.05
2022-08-03T05:37:07.662Z,22.13
2022-08-03T05:38:10.926Z,22.18
2022-08-03T05:39:14.566Z,22.19
2022-08-03T05:40:17.356Z,22.25
2022-08-03T05:41:36.667Z,22.39
2022-08-03T05:42:40.200Z,22.45
2022-08-03T05:43:43.130Z,22.58
2022-08-03T05:44:45.774Z,22.62
2022-08-03T05:45:48.822Z,22.66
2022-08-03T05:47:11.775Z,22.70
2022-08-03T05:48:14.619Z,22.74
2022-08-03T05:49:21.451Z,22.77
2022-08-03T05:50:24.377Z,22.85
2022-08-03T05:51:30.387Z,22.91
2022-08-03T05:52:33.027Z,23.03
2022-08-03T05:53:35.911Z,23.03
2022-08-03T05:54:56.847Z,23.12
2022-08-03T05:56:14.577Z,23.18
2022-08-03T05:57:19.334Z,23.16
2022-08-03T05:58:29.966Z,23.21
2022-08-03T05:59:38.394Z,23.27
2022-08-03T06:00:41.696Z,23.29
2022-08-03T06:01:44.409Z,23.32
2022-08-03T06:03:54.611Z,23.58
2022-08-03T06:04:57.351Z,23.57
2022-08-03T06:06:03.409Z,23.59
2022-08-03T06:07:07.627Z,23.61
2022-08-03T06:08:10.781Z,23.78
2022-08-03T06:09:18.348Z,23.78
2022-08-03T06:10:37.491Z,23.80
2022-08-03T06:11:42.221Z,23.80
2022-08-03T06:12:49.208Z,23.95
2022-08-03T06:13:51.847Z,24.12
2022-08-03T06:14:54.525Z,24.06
2022-08-03T06:15:57.234Z,24.01
2022-08-03T06:17:00.121Z,24.11
2022-08-03T06:18:02.894Z,24.23
2022-08-03T06:19:05.791Z,24.24
2022-08-03T06:20:12.359Z,24.07
2022-08-03T06:21:16.526Z,24.10
2022-08-03T06:22:19.223Z,24.21
2022-08-03T06:23:53.251Z,24.28
2022-08-03T06:24:53.475Z,24.36
2022-08-03T06:25:57.346Z,24.43
2022-08-03T06:27:00.647Z,24.39
2022-08-03T06:28:05.541Z,24.42
2022-08-03T06:29:08.603Z,24.52
2022-08-03T06:30:14.029Z,24.43
2022-08-03T06:31:18.726Z,24.59
2022-08-03T06:32:23.104Z,24.66
2022-08-03T06:34:30.151Z,24.70
2022-08-03T06:34:49.625Z,24.74
2022-08-03T06:35:52.426Z,24.75
2022-08-03T06:37:01.386Z,24.82
2022-08-03T06:38:04.965Z,24.95
2022-08-03T06:39:08.364Z,24.99
2022-08-03T06:40:13.949Z,25.04
2022-08-03T06:41:17.013Z,25.17
2022-08-03T06:42:20.629Z,25.23
2022-08-03T06:43:25.265Z,25.23
2022-08-03T06:44:27.963Z,25.30
2022-08-03T06:45:31.719Z,25.41
2022-08-03T06:46:35.478Z,25.43
2022-08-03T06:47:39.389Z,25.61
2022-08-03T06:48:47.832Z,25.64
2022-08-03T06:50:16.780Z,25.58
2022-08-03T06:51:14.219Z,25.63
2022-08-03T06:52:37.897Z,25.65
2022-08-03T06:53:39.527Z,25.80
2022-08-03T06:54:42.122Z,25.89
2022-08-03T06:55:45.457Z,25.83
2022-08-03T06:56:49.045Z,25.69
2022-08-03T06:57:52.780Z,25.75
2022-08-03T06:58:56.101Z,25.93
2022-08-03T07:00:10.870Z,26.14
2022-08-03T07:01:15.253Z,26.12
2022-08-03T07:02:21.782Z,26.08
2022-08-03T07:03:24.533Z,26.16
2022-08-03T07:04:27.252Z,26.26
2022-08-03T07:05:32.214Z,26.17
2022-08-03T07:06:34.921Z,26.18
2022-08-03T07:07:38.211Z,26.18
2022-08-03T07:08:41.432Z,26.23
2022-08-03T07:09:56.568Z,26.37
2022-08-03T07:11:04.214Z,26.23
2022-08-03T07:12:07.114Z,26.21
2022-08-03T07:13:09.855Z,26.29
2022-08-03T07:14:12.507Z,26.22
2022-08-03T07:15:20.247Z,26.37
2022-08-03T07:16:37.968Z,26.43
2022-08-03T07:17:41.263Z,26.46
2022-08-03T07:18:44.466Z,26.51
2022-08-03T07:19:47.032Z,26.56
2022-08-03T07:20:49.784Z,26.32
2022-08-03T07:21:53.570Z,26.52
2022-08-03T07:22:56.757Z,26.52
2022-08-03T07:23:59.469Z,26.48
2022-08-03T07:25:02.429Z,26.65
2022-08-03T07:26:05.456Z,26.74
2022-08-03T07:27:11.262Z,26.71
2022-08-03T07:28:14.673Z,26.84
2022-08-03T07:29:17.393Z,27.02
2022-08-03T07:30:20.133Z,27.17
2022-08-03T07:31:22.766Z,27.22
2022-08-03T07:32:26.193Z,27.48
2022-08-03T07:33:28.986Z,27.65
2022-08-03T07:34:31.839Z,27.56
2022-08-03T07:35:34.911Z,27.54
2022-08-03T07:36:38.301Z,27.61
2022-08-03T07:37:41.036Z,27.60
2022-08-03T07:38:58.528Z,27.59
2022-08-03T07:40:02.470Z,27.76
2022-08-03T07:41:05.334Z,27.77
2022-08-03T07:42:08.299Z,27.74
2022-08-03T07:43:14.275Z,27.80
2022-08-03T07:44:17.240Z,27.99
2022-08-03T07:45:19.886Z,28.22
2022-08-03T07:46:22.728Z,28.33
2022-08-03T07:47:35.014Z,28.36
2022-08-03T07:48:38.837Z,28.50
2022-08-03T07:49:41.960Z,28.45
2022-08-03T07:50:48.283Z,28.51
2022-08-03T07:52:11.032Z,28.32
2022-08-03T07:53:13.835Z,28.30
2022-08-03T07:54:16.520Z,28.47
2022-08-03T07:55:21.296Z,28.69
2022-08-03T07:56:28.275Z,28.80
2022-08-03T07:57:31.123Z,28.82
2022-08-03T07:58:37.314Z,29.03
2022-08-03T08:00:01.346Z,28.89
2022-08-03T08:01:02.858Z,28.87
2022-08-03T08:02:07.476Z,29.20
2022-08-03T08:03:10.385Z,29.45
2022-08-03T08:04:13.048Z,29.52
2022-08-03T08:05:15.818Z,29.34
2022-08-03T08:06:18.618Z,29.24
2022-08-03T08:07:21.339Z,29.11
2022-08-03T08:08:24.587Z,29.24
2022-08-03T08:09:27.266Z,29.39
2022-08-03T08:10:33.093Z,29.70
2022-08-03T08:11:39.750Z,29.83
2022-08-03T08:12:42.763Z,29.42
2022-08-03T08:13:49.300Z,29.52
2022-08-03T08:14:55.405Z,29.86
2022-08-03T08:15:58.230Z,29.90
2022-08-03T08:17:04.461Z,29.95
2022-08-03T08:18:12.957Z,30.07
2022-08-03T08:19:17.084Z,30.22
2022-08-03T08:20:28.310Z,30.11
2022-08-03T08:21:53.533Z,30.21
2022-08-03T08:23:01.317Z,30.19
2022-08-03T08:24:10.735Z,30.33
2022-08-03T08:25:16.516Z,30.03
2022-08-03T08:26:22.513Z,30.36
2022-08-03T08:27:25.632Z,30.18
2022-08-03T08:28:32.281Z,30.25
2022-08-03T08:29:35.865Z,30.49
2022-08-03T08:30:50.721Z,30.31
2022-08-03T08:31:53.434Z,30.25
2022-08-03T08:32:56.280Z,30.38
2022-08-03T08:34:04.080Z,30.64
2022-08-03T08:35:08.891Z,31.08
2022-08-03T08:36:15.219Z,31.33
2022-08-03T08:37:18.611Z,31.44
2022-08-03T08:38:23.662Z,31.14
2022-08-03T08:39:26.446Z,30.63
2022-08-03T08:40:29.300Z,30.88
2022-08-03T08:41:34.940Z,30.86
2022-08-03T08:42:40.300Z,31.14
2022-08-03T08:43:47.482Z,31.00
2022-08-03T08:44:50.216Z,31.38
2022-08-03T08:45:54.579Z,31.57
2022-08-03T08:47:00.184Z,31.63
2022-08-03T08:48:08.067Z,31.47
2022-08-03T08:49:12.929Z,31.86
2022-08-03T08:50:27.851Z,31.85
2022-08-03T08:51:51.011Z,31.72
2022-08-03T08:53:02.907Z,32.02
2022-08-03T08:54:08.007Z,31.75
2022-08-03T08:55:14.713Z,31.81
2022-08-03T08:56:18.704Z,32.10
2022-08-03T08:57:41.890Z,32.30
2022-08-03T08:58:53.264Z,32.32
2022-08-03T08:59:57.533Z,32.41
2022-08-03T09:01:00.419Z,32.56
2022-08-03T09:02:03.510Z,32.48
2022-08-03T09:03:07.148Z,31.44
2022-08-03T09:04:10.412Z,31.52
2022-08-03T09:05:18.378Z,31.49
2022-08-03T09:06:24.546Z,31.36
2022-08-03T09:07:28.881Z,31.82
2022-08-03T09:08:35.900Z,31.94
2022-08-03T09:10:08.362Z,32.01
2022-08-03T09:11:01.413Z,31.98
2022-08-03T09:12:35.094Z,32.12
2022-08-03T09:13:27.306Z,32.18
2022-08-03T09:14:35.336Z,32.30
2022-08-03T09:17:08.477Z,31.54
2022-08-03T09:18:32.949Z,31.47
2022-08-03T09:19:36.542Z,32.17
2022-08-03T09:20:39.534Z,32.57
2022-08-03T09:21:42.413Z,33.07
2022-08-03T09:22:54.779Z,33.23
2022-08-03T09:24:02.932Z,33.26
2022-08-03T09:25:24.264Z,33.42
2022-08-03T09:26:33.364Z,33.50
2022-08-03T09:27:50.596Z,33.70
2022-08-03T09:29:04.681Z,33.62
2022-08-03T09:30:33.794Z,33.52
2022-08-03T09:31:39.193Z,33.50
2022-08-03T09:32:47.723Z,33.53
2022-08-03T09:33:50.661Z,33.81
2022-08-03T09:34:58.055Z,33.94
2022-08-03T09:36:01.010Z,34.01
2022-08-03T09:37:15.319Z,33.59
2022-08-03T09:38:29.063Z,34.15
2022-08-03T09:39:41.191Z,34.47
2022-08-03T09:40:46.586Z,34.10
2022-08-03T09:42:05.795Z,33.98
2022-08-03T09:43:09.161Z,33.82
2022-08-03T09:44:24.079Z,34.15
2022-08-03T09:45:30.234Z,34.55
2022-08-03T09:46:50.177Z,34.49
2022-08-03T09:48:00.055Z,34.77
2022-08-03T09:49:13.406Z,34.94
2022-08-03T09:50:19.498Z,34.87
2022-08-03T09:51:33.190Z,34.72
2022-08-03T09:52:52.835Z,34.31
2022-08-03T09:54:00.319Z,33.55
2022-08-03T09:56:30.729Z,33.51
2022-08-03T09:56:47.741Z,33.08
2022-08-03T09:57:50.524Z,32.63
2022-08-03T09:58:53.288Z,32.09
2022-08-03T10:00:13.581Z,31.98
2022-08-03T10:01:25.287Z,31.50
2022-08-03T10:02:28.421Z,31.70
2022-08-03T10:04:02.647Z,31.33
2022-08-03T10:05:04.530Z,31.05
2022-08-03T10:06:19.559Z,30.43
2022-08-03T10:07:24.111Z,30.41
2022-08-03T10:08:33.562Z,30.57
2022-08-03T10:09:37.376Z,30.45
2022-08-03T10:10:48.592Z,30.53
2022-08-03T10:11:51.517Z,29.92
2022-08-03T10:12:58.385Z,29.67
2022-08-03T10:14:07.538Z,29.67
2022-08-03T10:16:23.486Z,29.79
2022-08-03T10:16:37.586Z,29.45
2022-08-03T10:17:40.741Z,29.39
2022-08-03T10:18:43.987Z,29.49
2022-08-03T10:19:47.549Z,29.28
2022-08-03T10:20:53.976Z,29.25
2022-08-03T10:22:01.404Z,29.83
2022-08-03T10:23:05.318Z,30.19
2022-08-03T10:24:10.785Z,30.25
2022-08-03T10:25:15.766Z,30.47
2022-08-03T10:26:22.821Z,30.49
2022-08-03T10:27:28.042Z,30.54
2022-08-03T10:28:45.028Z,30.45
2022-08-03T10:29:53.790Z,29.80
2022-08-03T10:30:56.767Z,30.07
2022-08-03T10:32:04.537Z,30.00
2022-08-03T10:33:51.668Z,30.49
2022-08-03T10:34:44.527Z,30.71
2022-08-03T10:35:53.030Z,30.89
2022-08-03T10:37:00.333Z,31.49
2022-08-03T10:38:12.725Z,31.64
2022-08-03T10:39:22.012Z,32.38
2022-08-03T10:41:52.438Z,31.88
2022-08-03T10:43:00.086Z,31.64
2022-08-03T10:44:07.626Z,31.63
2022-08-03T10:45:18.950Z,31.53
2022-08-03T10:46:22.321Z,31.39
2022-08-03T10:47:25.163Z,31.47
2022-08-03T10:48:30.335Z,31.62
2022-08-03T10:49:35.475Z,31.82
2022-08-03T10:50:41.282Z,32.08
2022-08-03T10:51:48.380Z,31.74
2022-08-03T10:53:07.512Z,31.85
2022-08-03T10:55:00.762Z,31.91
2022-08-03T10:56:35.476Z,31.38
2022-08-03T10:57:58.206Z,31.45
2022-08-03T10:59:03.888Z,30.62
2022-08-03T11:00:08.268Z,30.54
2022-08-03T11:01:15.598Z,30.60
2022-08-03T11:02:18.379Z,30.76
2022-08-03T11:03:21.095Z,31.23
2022-08-03T11:04:24.715Z,31.78
2022-08-03T11:05:29.967Z,32.06
2022-08-03T11:06:37.519Z,32.30
2022-08-03T11:07:40.871Z,32.89
2022-08-03T11:08:44.854Z,33.21
2022-08-03T11:09:49.827Z,33.20
2022-08-03T11:10:55.751Z,32.65
2022-08-03T11:11:59.472Z,32.57
2022-08-03T11:13:17.149Z,32.95
2022-08-03T11:14:21.928Z,33.00
2022-08-03T11:15:33.834Z,32.49
2022-08-03T11:16:41.762Z,32.11
2022-08-03T11:18:11.440Z,32.36
2022-08-03T11:19:22.868Z,32.74
2022-08-03T11:20:50.592Z,33.25
2022-08-03T11:21:54.435Z,33.04
2022-08-03T11:22:59.717Z,32.82
2022-08-03T11:24:06.479Z,32.79
2022-08-03T11:25:52.983Z,32.30
2022-08-03T11:26:33.200Z,32.14
2022-08-03T11:27:36.110Z,31.90
2022-08-03T11:28:40.249Z,31.67
2022-08-03T11:30:04.613Z,31.47
2022-08-03T11:31:46.797Z,31.49
2022-08-03T11:32:48.272Z,31.77
2022-08-03T11:34:10.434Z,32.38
2022-08-03T11:35:22.143Z,32.44
2022-08-03T11:36:32.220Z,31.97
2022-08-03T11:37:35.989Z,31.98
2022-08-03T11:39:16.691Z,31.88
2022-08-03T11:40:51.998Z,32.46
2022-08-03T11:41:54.774Z,33.23
2022-08-03T11:42:57.559Z,32.98
2022-08-03T11:44:00.285Z,32.58
2022-08-03T11:45:08.539Z,32.17
2022-08-03T11:46:28.353Z,32.72
2022-08-03T11:47:50.128Z,32.99
2022-08-03T11:48:59.552Z,33.07
2022-08-03T11:50:02.431Z,33.39
2022-08-03T11:51:09.455Z,33.39
2022-08-03T11:52:12.138Z,33.16
2022-08-03T11:53:17.425Z,33.30
2022-08-03T11:54:20.238Z,33.13
2022-08-03T11:55:23.743Z,33.00
2022-08-03T11:56:28.796Z,33.07
2022-08-03T11:59:17.314Z,32.91
2022-08-03T11:59:18.619Z,32.91
2022-08-03T12:00:32.774Z,32.49
2022-08-03T12:01:35.595Z,32.26
2022-08-03T12:02:38.412Z,31.84
2022-08-03T12:03:41.173Z,31.33
2022-08-03T12:04:52.535Z,31.08
2022-08-03T12:05:55.266Z,30.83
2022-08-03T12:07:00.550Z,31.07
2022-08-03T12:08:06.671Z,30.97
2022-08-03T12:09:16.690Z,31.14
2022-08-03T12:10:19.637Z,31.08
2022-08-03T12:11:23.197Z,30.84
2022-08-03T12:12:26.045Z,30.45
2022-08-03T12:14:45.435Z,30.63
2022-08-03T12:15:03.819Z,30.66
2022-08-03T12:16:07.321Z,30.72
2022-08-03T12:17:10.090Z,30.59
2022-08-03T12:18:21.034Z,30.53
2022-08-03T12:19:23.832Z,30.21
2022-08-03T12:20:34.774Z,29.87
2022-08-03T12:21:57.439Z,30.08
2022-08-03T12:23:07.156Z,30.24
2022-08-03T12:24:09.870Z,30.34
2022-08-03T12:25:27.013Z,30.34
2022-08-03T12:26:52.211Z,30.22
2022-08-03T12:28:36.294Z,30.13
2022-08-03T12:29:40.480Z,29.90
2022-08-03T12:30:43.912Z,29.97
2022-08-03T12:31:47.319Z,30.04
2022-08-03T12:32:50.218Z,30.06
2022-08-03T12:34:04.371Z,29.91
2022-08-03T12:35:07.542Z,29.86
2022-08-03T12:36:14.544Z,29.80
2022-08-03T12:37:23.394Z,29.79
2022-08-03T12:38:29.644Z,29.80
2022-08-03T12:39:33.623Z,29.89
2022-08-03T12:40:36.395Z,29.64
2022-08-03T12:41:41.698Z,29.46
2022-08-03T12:42:47.612Z,29.58
2022-08-03T12:43:50.688Z,29.55
2022-08-03T12:44:56.290Z,29.70
2022-08-03T12:46:12.750Z,29.73
2022-08-03T12:47:16.239Z,29.73
2022-08-03T12:48:19.393Z,29.74
2022-08-03T12:49:26.946Z,29.82
2022-08-03T12:50:32.014Z,29.97
2022-08-03T12:51:57.523Z,30.43
2022-08-03T12:53:04.940Z,30.87
2022-08-03T12:54:07.740Z,31.09
2022-08-03T12:55:23.707Z,31.38
2022-08-03T12:56:30.591Z,31.60
2022-08-03T12:57:43.442Z,31.46
2022-08-03T12:58:48.035Z,31.22
2022-08-03T12:59:53.407Z,31.14
2022-08-03T13:00:56.938Z,30.98
2022-08-03T13:02:00.532Z,30.97
2022-08-03T13:04:34.714Z,31.62
2022-08-03T13:05:46.853Z,31.90
2022-08-03T13:07:06.778Z,31.94
2022-08-03T13:08:23.785Z,32.31
2022-08-03T13:09:26.642Z,32.55
2022-08-03T13:10:33.597Z,32.52
2022-08-03T13:12:01.991Z,32.72
2022-08-03T13:13:04.895Z,32.82
2022-08-03T13:14:07.643Z,32.40
2022-08-03T13:15:10.520Z,32.71
2022-08-03T13:16:18.733Z,32.90
2022-08-03T13:17:22.318Z,32.21
2022-08-03T13:18:25.484Z,32.87
2022-08-03T13:19:28.348Z,33.23
2022-08-03T13:20:31.088Z,32.89
2022-08-03T13:21:33.839Z,33.03
2022-08-03T13:23:00.588Z,33.47
2022-08-03T13:24:03.884Z,33.56
2022-08-03T13:25:07.143Z,33.77
2022-08-03T13:26:10.943Z,33.78
2022-08-03T13:27:58.840Z,33.52
2022-08-03T13:28:38.791Z,33.30
2022-08-03T13:29:43.606Z,33.44
2022-08-03T13:30:46.472Z,33.22
2022-08-03T13:31:50.955Z,33.30
2022-08-03T13:32:54.235Z,33.43
2022-08-03T13:33:56.872Z,32.62
2022-08-03T13:35:00.283Z,32.10
2022-08-03T13:36:03.160Z,32.42
2022-08-03T13:37:10.121Z,32.71
2022-08-03T13:38:13.343Z,33.10
2022-08-03T13:39:20.067Z,33.17
2022-08-03T13:40:23.578Z,33.53
2022-08-03T13:41:29.088Z,33.28
2022-08-03T13:42:35.927Z,33.27
2022-08-03T13:43:40.165Z,33.36
2022-08-03T13:44:43.309Z,33.50
2022-08-03T13:45:51.192Z,33.90
2022-08-03T13:46:56.337Z,33.53
2022-08-03T13:47:59.465Z,32.76
2022-08-03T13:49:02.251Z,32.49
2022-08-03T13:50:05.505Z,33.13
2022-08-03T13:51:22.139Z,33.78
2022-08-03T13:52:25.675Z,33.92
2022-08-03T13:53:28.502Z,33.62
2022-08-03T13:54:31.383Z,33.79
2022-08-03T13:55:37.688Z,34.10
2022-08-03T13:56:40.659Z,33.77
2022-08-03T13:58:03.080Z,33.83
2022-08-03T13:59:08.210Z,33.64
2022-08-03T14:00:12.063Z,33.70
2022-08-03T14:01:15.027Z,33.51
2022-08-03T14:02:17.845Z,33.32
2022-08-03T14:03:21.479Z,33.13
2022-08-03T14:04:24.197Z,32.89
2022-08-03T14:05:26.845Z,32.41
2022-08-03T14:06:29.583Z,32.00
2022-08-03T14:07:32.344Z,32.13
2022-08-03T14:08:41.975Z,32.32
2022-08-03T14:09:44.962Z,32.45
2022-08-03T14:10:48.743Z,32.66
2022-08-03T14:12:06.882Z,32.47
2022-08-03T14:13:17.746Z,32.21
2022-08-03T14:14:23.252Z,32.17
2022-08-03T14:15:29.220Z,32.01
2022-08-03T14:16:31.987Z,31.87
2022-08-03T14:17:49.650Z,31.88
2022-08-03T14:18:52.978Z,31.73
2022-08-03T14:19:55.666Z,31.62
2022-08-03T14:21:06.309Z,31.65
2022-08-03T14:22:09.615Z,31.90
2022-08-03T14:23:12.910Z,32.22
2022-08-03T14:24:16.914Z,32.36
2022-08-03T14:25:19.692Z,32.43
2022-08-03T14:26:25.761Z,32.55
2022-08-03T14:27:28.454Z,32.91
2022-08-03T14:28:32.757Z,33.02
2022-08-03T14:29:35.444Z,32.89
2022-08-03T14:30:38.055Z,32.70
2022-08-03T14:32:11.714Z,32.32
2022-08-03T14:33:03.503Z,32.33
2022-08-03T14:34:07.823Z,31.73
2022-08-03T14:35:10.655Z,31.67
2022-08-03T14:36:13.300Z,31.90
2022-08-03T14:37:16.006Z,32.14
2022-08-03T14:38:19.246Z,32.50
2022-08-03T14:39:26.187Z,32.96
2022-08-03T14:40:28.982Z,33.07
2022-08-03T14:41:31.868Z,33.10
2022-08-03T14:42:34.648Z,32.88
2022-08-03T14:43:40.978Z,32.53
2022-08-03T14:45:09.464Z,32.37
2022-08-03T14:46:23.361Z,32.06